Paullina, Iowa
Current Conditions -  °F | °C
As of 1:55 PM on Friday 19 Dec 2014 (Local Time) from KSHL Reporting Station
Haze Haze  
Wind Chill: 22°   Ceiling: 1100
Heat Index: 32°   Visibility: 6mi
Dew Point: 30°   Wind: 14mph
Humidity: 93%   Direction: 190°S
Pressure: 30.11"   Gusts: NA
Location:  42.98°N, 95.69°W
Report Text: KSHL 191955Z AUTO 19012KT 6SM BR OVC011 M00/M01 A3011 RMK AO2
Loading
Personal Weather Stations






























Interactive Weather Map New forecast layout! Learn more

10-Day Weather Forecast

Advertisements
Track Severe Weather on mobile